createdAt,value
2022-08-29T00:02:24.062Z,45.70
2022-08-29T00:04:52.427Z,45.50
2022-08-29T00:07:20.058Z,45.42
2022-08-29T00:09:47.525Z,45.40
2022-08-29T00:12:17.736Z,45.24
2022-08-29T00:14:45.424Z,45.12
2022-08-29T00:17:15.446Z,45.09
2022-08-29T00:19:43.023Z,44.64
2022-08-29T00:22:10.494Z,44.39
2022-08-29T00:24:38.106Z,44.28
2022-08-29T00:27:06.045Z,43.97
2022-08-29T00:29:33.539Z,43.86
2022-08-29T00:32:01.146Z,44.14
2022-08-29T00:34:28.762Z,44.22
2022-08-29T00:36:56.363Z,44.15
2022-08-29T00:39:23.891Z,44.26
2022-08-29T00:41:51.804Z,44.19
2022-08-29T00:44:19.979Z,44.27
2022-08-29T00:46:52.256Z,44.05
2022-08-29T00:49:28.747Z,44.01
2022-08-29T00:51:58.893Z,43.72
2022-08-29T00:54:27.374Z,43.65
2022-08-29T00:56:56.113Z,43.57
2022-08-29T00:59:31.941Z,43.76
2022-08-29T01:01:59.781Z,43.58
2022-08-29T01:04:27.540Z,43.63
2022-08-29T01:06:55.239Z,43.73
2022-08-29T01:09:24.534Z,43.79
2022-08-29T01:12:11.675Z,43.74
2022-08-29T01:14:41.089Z,43.72
2022-08-29T01:17:10.279Z,43.87
2022-08-29T01:19:52.482Z,43.98
2022-08-29T01:22:44.579Z,44.04
2022-08-29T01:25:17.010Z,43.82
2022-08-29T01:27:55.010Z,44.18
2022-08-29T01:30:25.397Z,44.08
2022-08-29T01:32:53.039Z,44.02
2022-08-29T01:35:20.551Z,44.12
2022-08-29T01:37:48.148Z,44.32
2022-08-29T01:40:15.757Z,44.35
2022-08-29T01:42:44.108Z,44.23
2022-08-29T01:45:12.037Z,44.20
2022-08-29T01:47:40.274Z,44.43
2022-08-29T01:50:14.538Z,44.81
2022-08-29T01:52:43.176Z,44.44
2022-08-29T01:55:11.441Z,44.67
2022-08-29T01:57:40.376Z,44.37
2022-08-29T02:00:10.832Z,44.65
2022-08-29T02:02:40.361Z,44.66
2022-08-29T02:05:09.852Z,44.58
2022-08-29T02:07:37.498Z,44.59
2022-08-29T02:10:06.955Z,44.42
2022-08-29T02:12:35.609Z,44.42
2022-08-29T02:15:03.846Z,44.58
2022-08-29T02:17:31.428Z,44.41
2022-08-29T02:19:59.299Z,44.39
2022-08-29T02:22:26.776Z,44.29
2022-08-29T02:24:54.325Z,44.38
2022-08-29T02:27:21.926Z,44.19
2022-08-29T02:29:49.488Z,44.11
2022-08-29T02:32:17.073Z,44.06
2022-08-29T02:34:47.901Z,44.13
2022-08-29T02:37:19.109Z,44.35
2022-08-29T02:39:46.765Z,44.17
2022-08-29T02:42:14.326Z,44.17
2022-08-29T02:44:41.890Z,44.22
2022-08-29T02:47:09.516Z,44.08
2022-08-29T02:49:37.135Z,43.89
2022-08-29T02:52:08.787Z,43.87
2022-08-29T02:54:36.447Z,43.65
2022-08-29T02:57:05.463Z,43.56
2022-08-29T02:59:32.964Z,43.47
2022-08-29T03:02:00.615Z,43.44
2022-08-29T03:04:28.470Z,43.37
2022-08-29T03:06:58.828Z,43.18
2022-08-29T03:09:26.467Z,43.28
2022-08-29T03:11:56.570Z,43.19
2022-08-29T03:14:24.793Z,43.14
2022-08-29T03:16:53.610Z,43.04
2022-08-29T03:19:23.519Z,43.09
2022-08-29T03:21:51.356Z,42.96
2022-08-29T03:24:26.230Z,42.96
2022-08-29T03:26:57.027Z,42.95
2022-08-29T03:29:26.449Z,42.75
2022-08-29T03:31:58.504Z,42.59
2022-08-29T03:34:29.397Z,42.62
2022-08-29T03:36:57.823Z,42.61
2022-08-29T03:39:25.771Z,42.74
2022-08-29T03:41:53.673Z,42.61
2022-08-29T03:44:22.673Z,42.38
2022-08-29T03:46:50.342Z,42.38
2022-08-29T03:49:18.094Z,42.33
2022-08-29T03:51:45.589Z,42.16
2022-08-29T03:54:13.194Z,42.39
2022-08-29T03:56:43.569Z,42.17
2022-08-29T03:59:11.506Z,42.01
2022-08-29T04:01:42.210Z,42.10
2022-08-29T04:04:30.020Z,41.59
2022-08-29T04:06:57.631Z,41.57
2022-08-29T04:09:32.468Z,41.47
2022-08-29T04:12:00.408Z,41.51
2022-08-29T04:14:29.583Z,41.77
2022-08-29T04:16:58.199Z,41.62
2022-08-29T04:19:25.685Z,41.70
2022-08-29T04:21:57.330Z,41.77
2022-08-29T04:24:25.502Z,41.78
2022-08-29T04:26:53.067Z,41.46
2022-08-29T04:29:20.578Z,41.54
2022-08-29T04:31:48.148Z,41.58
2022-08-29T04:34:18.405Z,41.28
2022-08-29T04:36:47.275Z,41.29
2022-08-29T04:39:15.442Z,41.05
2022-08-29T04:41:43.556Z,40.82
2022-08-29T04:44:14.362Z,40.83
2022-08-29T04:46:42.058Z,40.58
2022-08-29T04:49:09.599Z,40.34
2022-08-29T04:51:37.169Z,39.88
2022-08-29T04:54:06.715Z,39.88
2022-08-29T04:56:38.289Z,39.66
2022-08-29T04:59:09.669Z,39.93
2022-08-29T05:01:37.480Z,39.85
2022-08-29T05:04:05.547Z,39.49
2022-08-29T05:06:33.133Z,39.15
2022-08-29T05:09:00.752Z,39.11
2022-08-29T05:11:30.773Z,39.10
2022-08-29T05:13:59.670Z,39.54
2022-08-29T05:16:27.936Z,39.88
2022-08-29T05:18:56.418Z,40.14
2022-08-29T05:21:35.020Z,40.18
2022-08-29T05:24:05.623Z,40.16
2022-08-29T05:26:36.837Z,40.17
2022-08-29T05:29:08.416Z,40.31
2022-08-29T05:31:38.604Z,39.94
2022-08-29T05:34:16.260Z,39.97
2022-08-29T05:36:53.966Z,40.29
2022-08-29T05:39:21.474Z,40.19
2022-08-29T05:41:48.931Z,40.48
2022-08-29T05:44:16.837Z,40.40
2022-08-29T05:46:44.381Z,40.60
2022-08-29T05:49:12.100Z,40.79
2022-08-29T05:51:40.014Z,40.89
2022-08-29T05:54:08.342Z,40.81
2022-08-29T05:56:36.212Z,40.48
2022-08-29T05:59:04.105Z,39.48
2022-08-29T06:01:34.169Z,38.89
2022-08-29T06:04:01.966Z,38.53
2022-08-29T06:06:30.117Z,38.81
2022-08-29T06:08:59.280Z,39.17
2022-08-29T06:11:30.133Z,39.08
2022-08-29T06:13:58.284Z,39.28
2022-08-29T06:16:27.672Z,38.75
2022-08-29T06:18:55.447Z,38.75
2022-08-29T06:21:23.906Z,38.70
2022-08-29T06:23:51.565Z,38.63
2022-08-29T06:26:19.931Z,38.37
2022-08-29T06:28:48.090Z,38.16
2022-08-29T06:31:21.634Z,37.58
2022-08-29T06:33:53.390Z,37.34
2022-08-29T06:36:21.701Z,36.91
2022-08-29T06:38:49.338Z,36.81
2022-08-29T06:41:19.745Z,36.87
2022-08-29T06:43:47.274Z,37.11
2022-08-29T06:46:33.378Z,37.79
2022-08-29T06:49:02.710Z,37.72
2022-08-29T06:51:33.349Z,37.38
2022-08-29T06:54:02.938Z,37.32
2022-08-29T06:56:30.875Z,37.36
2022-08-29T06:58:58.728Z,37.47
2022-08-29T07:01:29.005Z,37.86
2022-08-29T07:03:58.098Z,37.82
2022-08-29T07:06:28.368Z,37.42
2022-08-29T07:08:56.598Z,37.01
2022-08-29T07:11:26.355Z,35.90
2022-08-29T07:13:57.451Z,34.74
2022-08-29T07:16:26.331Z,34.82
2022-08-29T07:18:56.837Z,34.43
2022-08-29T07:21:26.407Z,33.92
2022-08-29T07:23:55.598Z,33.90
2022-08-29T07:26:30.793Z,33.83
2022-08-29T07:29:03.238Z,32.74
2022-08-29T07:31:31.688Z,32.14
2022-08-29T07:34:02.650Z,31.52
2022-08-29T07:36:34.425Z,30.66
2022-08-29T07:39:05.521Z,29.71
2022-08-29T07:41:33.654Z,29.55
2022-08-29T07:44:03.556Z,29.45
2022-08-29T07:46:31.669Z,28.63
2022-08-29T07:49:00.028Z,28.51
2022-08-29T07:51:28.670Z,27.69
2022-08-29T07:53:58.299Z,27.12
2022-08-29T07:56:37.089Z,26.38
2022-08-29T07:59:06.544Z,26.51
2022-08-29T08:01:35.438Z,26.27
2022-08-29T08:04:03.327Z,25.94
2022-08-29T08:06:31.247Z,25.49
2022-08-29T08:09:01.893Z,24.85
2022-08-29T08:11:29.493Z,24.28
2022-08-29T08:13:57.902Z,24.27
2022-08-29T08:16:27.733Z,23.61
2022-08-29T08:18:56.217Z,22.82
2022-08-29T08:21:25.534Z,22.39
2022-08-29T08:23:53.603Z,22.22
2022-08-29T08:26:21.803Z,22.07
2022-08-29T08:28:50.158Z,21.94
2022-08-29T08:31:18.271Z,22.32
2022-08-29T08:33:48.570Z,22.03
2022-08-29T08:36:30.998Z,22.21
2022-08-29T08:39:00.110Z,22.22
2022-08-29T08:41:33.277Z,22.08
2022-08-29T08:44:07.227Z,21.87
2022-08-29T08:46:39.264Z,21.96
2022-08-29T08:49:16.891Z,22.61
2022-08-29T08:51:53.263Z,23.30
2022-08-29T08:54:26.908Z,23.69
2022-08-29T08:57:03.806Z,23.08
2022-08-29T08:59:42.763Z,22.47
2022-08-29T09:02:36.752Z,22.18
2022-08-29T09:05:19.618Z,22.43
2022-08-29T09:08:20.633Z,22.22
2022-08-29T09:11:06.414Z,22.71
2022-08-29T09:13:51.165Z,23.38
2022-08-29T09:16:27.510Z,23.73
2022-08-29T09:19:09.510Z,23.61
2022-08-29T09:21:49.433Z,24.36
2022-08-29T09:24:47.374Z,25.11
2022-08-29T09:27:38.344Z,26.03
2022-08-29T09:30:09.343Z,27.47
2022-08-29T09:32:54.307Z,28.56
2022-08-29T09:35:29.622Z,29.65
2022-08-29T09:38:08.054Z,30.27
2022-08-29T09:40:59.321Z,29.89
2022-08-29T09:43:41.533Z,29.20
2022-08-29T09:46:11.939Z,27.46
2022-08-29T09:48:43.024Z,25.45
2022-08-29T09:51:31.211Z,23.21
2022-08-29T09:54:19.067Z,22.19
2022-08-29T09:56:53.973Z,22.70
2022-08-29T09:59:31.174Z,22.13
2022-08-29T10:02:24.488Z,21.39
2022-08-29T10:05:00.470Z,21.78
2022-08-29T10:07:37.477Z,21.56
2022-08-29T10:10:23.630Z,20.37
2022-08-29T10:13:10.221Z,19.92
2022-08-29T10:16:13.459Z,19.58
2022-08-29T10:19:13.835Z,18.75
2022-08-29T10:22:04.535Z,19.04
2022-08-29T10:24:44.041Z,18.47
2022-08-29T10:27:26.571Z,19.01
2022-08-29T10:30:14.594Z,18.30
2022-08-29T10:32:57.025Z,19.11
2022-08-29T10:35:42.360Z,17.54
2022-08-29T10:38:27.863Z,17.33
2022-08-29T10:41:52.869Z,17.30
2022-08-29T10:44:40.459Z,17.65
2022-08-29T10:47:34.063Z,18.42
2022-08-29T10:50:27.521Z,19.03
2022-08-29T10:53:15.490Z,18.19
2022-08-29T10:55:54.349Z,17.77
2022-08-29T10:58:56.483Z,17.68
2022-08-29T11:01:59.374Z,19.70
2022-08-29T11:04:29.993Z,21.97
2022-08-29T11:07:04.353Z,23.92
2022-08-29T11:09:38.678Z,25.63
2022-08-29T11:12:18.081Z,27.31
2022-08-29T11:15:20.679Z,28.57
2022-08-29T11:17:56.215Z,30.20
2022-08-29T11:20:30.621Z,30.04
2022-08-29T11:23:26.626Z,30.74
2022-08-29T11:25:55.593Z,31.27
2022-08-29T11:28:52.626Z,32.66
2022-08-29T11:31:24.823Z,32.04
2022-08-29T11:34:18.238Z,32.95
2022-08-29T11:37:26.976Z,31.94
2022-08-29T11:40:47.070Z,32.08
2022-08-29T11:43:18.476Z,32.60
2022-08-29T11:45:58.319Z,33.30
2022-08-29T11:48:42.087Z,32.67
2022-08-29T11:51:36.139Z,30.92
2022-08-29T11:54:26.225Z,27.83
2022-08-29T11:57:03.499Z,25.19
2022-08-29T11:59:49.355Z,23.58
2022-08-29T12:02:28.642Z,22.59
2022-08-29T12:05:06.722Z,22.20
2022-08-29T12:07:52.054Z,21.72
2022-08-29T12:10:25.484Z,22.04
2022-08-29T12:13:33.147Z,22.86
2022-08-29T12:16:09.481Z,23.04
2022-08-29T12:18:52.852Z,22.76
2022-08-29T12:21:38.552Z,22.71
2022-08-29T12:24:29.722Z,22.32
2022-08-29T12:26:57.611Z,22.36
2022-08-29T12:29:43.561Z,22.42
2022-08-29T12:32:33.019Z,23.00
2022-08-29T12:35:20.398Z,25.93
2022-08-29T12:38:28.306Z,28.34
2022-08-29T12:41:04.925Z,29.65
2022-08-29T12:43:44.008Z,28.66
2022-08-29T12:46:16.715Z,27.49
2022-08-29T12:48:57.573Z,26.53
2022-08-29T12:51:40.967Z,26.19
2022-08-29T12:54:11.033Z,26.68
2022-08-29T12:56:47.723Z,29.54
2022-08-29T12:59:20.459Z,31.33
2022-08-29T13:01:50.889Z,32.70
2022-08-29T13:04:34.049Z,33.33
2022-08-29T13:07:07.370Z,34.24
2022-08-29T13:09:43.633Z,35.29
2022-08-29T13:12:20.264Z,33.67
2022-08-29T13:14:56.601Z,35.48
2022-08-29T13:17:26.200Z,34.70
2022-08-29T13:20:38.355Z,37.73
2022-08-29T13:23:05.898Z,38.65
2022-08-29T13:25:34.126Z,39.29
2022-08-29T13:28:02.122Z,39.26
2022-08-29T13:30:29.734Z,39.00
2022-08-29T13:32:57.300Z,39.00
2022-08-29T13:35:37.130Z,39.47
2022-08-29T13:38:24.336Z,40.41
2022-08-29T13:40:57.315Z,40.46
2022-08-29T13:43:48.799Z,40.61
2022-08-29T13:46:27.350Z,41.29
2022-08-29T13:49:02.066Z,41.83
2022-08-29T13:51:29.614Z,41.88
2022-08-29T13:53:57.170Z,42.57
2022-08-29T13:56:32.766Z,43.03
2022-08-29T13:59:06.544Z,43.55
2022-08-29T14:04:38.069Z,42.87
2022-08-29T14:07:07.830Z,42.43
2022-08-29T14:09:37.965Z,42.58
2022-08-29T14:12:09.460Z,42.37
2022-08-29T14:14:36.984Z,42.28
2022-08-29T14:17:05.143Z,42.36
2022-08-29T14:19:33.795Z,42.93
2022-08-29T14:22:02.234Z,42.58
2022-08-29T14:24:32.007Z,42.97
2022-08-29T14:27:02.554Z,43.21
2022-08-29T14:29:31.652Z,43.37
2022-08-29T14:32:02.968Z,43.51
2022-08-29T14:34:32.796Z,43.55
2022-08-29T14:37:07.021Z,44.02
2022-08-29T14:39:35.043Z,44.33
2022-08-29T14:42:02.855Z,44.06
2022-08-29T14:44:30.445Z,44.35
2022-08-29T14:46:58.244Z,44.15
2022-08-29T14:49:26.086Z,44.27
2022-08-29T14:51:53.667Z,44.27
2022-08-29T14:54:21.231Z,44.52
2022-08-29T14:56:50.117Z,44.73
2022-08-29T14:59:22.756Z,44.92
2022-08-29T15:01:54.148Z,44.90
2022-08-29T15:04:34.960Z,44.96
2022-08-29T15:07:09.133Z,45.24
2022-08-29T15:09:39.776Z,45.34
2022-08-29T15:12:12.658Z,45.78
2022-08-29T15:14:41.561Z,45.64
2022-08-29T15:17:09.592Z,46.03
2022-08-29T15:22:25.449Z,46.41
2022-08-29T15:24:53.248Z,46.87
2022-08-29T15:27:27.105Z,47.00
2022-08-29T15:29:56.493Z,47.27
2022-08-29T15:32:26.035Z,47.50
2022-08-29T15:34:53.771Z,47.89
2022-08-29T15:37:22.319Z,48.08
2022-08-29T15:39:56.123Z,48.36
2022-08-29T15:42:26.597Z,47.93
2022-08-29T15:44:54.163Z,47.71
2022-08-29T15:47:25.680Z,48.08
2022-08-29T15:49:55.027Z,48.20
2022-08-29T15:52:22.525Z,48.09
2022-08-29T15:54:50.043Z,48.07
2022-08-29T15:57:25.511Z,48.45
2022-08-29T15:59:57.963Z,48.03
2022-08-29T16:02:28.083Z,47.95
2022-08-29T16:04:57.353Z,48.21
2022-08-29T16:07:31.660Z,48.25
2022-08-29T16:10:01.064Z,48.73
2022-08-29T16:12:31.485Z,49.19
2022-08-29T16:15:01.242Z,48.99
2022-08-29T16:17:31.580Z,49.15
2022-08-29T16:20:01.315Z,49.27
2022-08-29T16:22:30.200Z,49.60
2022-08-29T16:24:58.525Z,49.36
2022-08-29T16:27:26.158Z,49.59
2022-08-29T16:29:54.641Z,49.70
2022-08-29T16:32:22.182Z,49.73
2022-08-29T16:34:50.294Z,49.79
2022-08-29T16:37:18.946Z,50.06
2022-08-29T16:39:46.481Z,50.02
2022-08-29T16:42:14.273Z,50.04
2022-08-29T16:44:42.052Z,50.26
2022-08-29T16:47:10.802Z,50.36
2022-08-29T16:49:38.404Z,50.48
2022-08-29T16:52:06.338Z,50.86
2022-08-29T16:54:36.730Z,51.45
2022-08-29T16:57:04.549Z,51.40
2022-08-29T16:59:37.078Z,51.90
2022-08-29T17:02:05.149Z,52.09
2022-08-29T17:04:32.870Z,52.66
2022-08-29T17:07:05.941Z,52.79
2022-08-29T17:09:35.782Z,52.93
2022-08-29T17:12:03.861Z,53.20
2022-08-29T17:15:06.185Z,53.22
2022-08-29T17:17:35.339Z,53.40
2022-08-29T17:20:03.097Z,53.36
2022-08-29T17:22:30.855Z,53.36
2022-08-29T17:24:59.491Z,53.56
2022-08-29T17:27:30.106Z,53.73
2022-08-29T17:29:58.121Z,53.69
2022-08-29T17:32:25.871Z,53.58
2022-08-29T17:34:53.616Z,54.00
2022-08-29T17:37:21.161Z,53.93
2022-08-29T17:39:48.792Z,53.86
2022-08-29T17:42:16.730Z,53.84
2022-08-29T17:44:46.464Z,53.64
2022-08-29T17:47:14.247Z,53.57
2022-08-29T17:49:41.863Z,53.50
2022-08-29T17:52:09.472Z,53.22
2022-08-29T17:54:37.323Z,53.36
2022-08-29T17:57:05.061Z,53.16
2022-08-29T17:59:35.182Z,52.82
2022-08-29T18:02:05.287Z,52.68
2022-08-29T18:04:33.155Z,52.37
2022-08-29T18:07:00.842Z,52.57
2022-08-29T18:09:31.460Z,52.72
2022-08-29T18:11:59.083Z,52.53
2022-08-29T18:14:32.690Z,52.53
2022-08-29T18:17:00.321Z,52.43
2022-08-29T18:19:31.018Z,52.89
2022-08-29T18:21:59.633Z,52.81
2022-08-29T18:24:27.194Z,52.95
2022-08-29T18:26:54.801Z,52.92
2022-08-29T18:29:22.365Z,53.21
2022-08-29T18:31:50.255Z,53.27
2022-08-29T18:34:17.972Z,53.37
2022-08-29T18:36:48.608Z,53.57
2022-08-29T18:39:17.082Z,53.54
2022-08-29T18:41:45.082Z,53.72
2022-08-29T18:44:12.612Z,54.04
2022-08-29T18:46:47.973Z,54.15
2022-08-29T18:49:17.355Z,54.26
2022-08-29T18:51:44.911Z,54.60
2022-08-29T18:54:18.886Z,54.79
2022-08-29T18:56:47.101Z,55.12
2022-08-29T18:59:14.630Z,55.33
2022-08-29T19:01:43.106Z,55.54
2022-08-29T19:04:10.703Z,55.88
2022-08-29T19:06:38.259Z,56.00
2022-08-29T19:09:05.900Z,56.44
2022-08-29T19:11:33.483Z,56.62
2022-08-29T19:14:00.996Z,56.98
2022-08-29T19:16:28.861Z,57.34
2022-08-29T19:18:56.363Z,57.36
2022-08-29T19:21:26.169Z,57.60
2022-08-29T19:23:54.771Z,57.89
2022-08-29T19:26:31.932Z,58.40
2022-08-29T19:29:05.044Z,58.44
2022-08-29T19:31:32.879Z,58.26
2022-08-29T19:34:00.867Z,58.37
2022-08-29T19:36:28.543Z,58.36
2022-08-29T19:38:56.395Z,58.74
2022-08-29T19:41:25.062Z,58.74
2022-08-29T19:43:53.061Z,58.93
2022-08-29T19:46:23.293Z,59.22
2022-08-29T19:48:52.295Z,59.06
2022-08-29T19:51:24.748Z,59.26
2022-08-29T19:53:57.168Z,59.62
2022-08-29T19:56:29.236Z,59.94
2022-08-29T19:58:57.184Z,59.53
2022-08-29T20:01:25.792Z,59.76
2022-08-29T20:03:54.402Z,60.13
2022-08-29T20:06:23.330Z,60.04
2022-08-29T20:08:51.007Z,59.88
2022-08-29T20:11:21.988Z,60.16
2022-08-29T20:13:51.536Z,60.48
2022-08-29T20:16:30.925Z,61.10
2022-08-29T20:18:58.831Z,60.82
2022-08-29T20:21:26.901Z,61.13
2022-08-29T20:23:59.783Z,61.13
2022-08-29T20:26:33.482Z,61.48
2022-08-29T20:29:03.025Z,61.76
2022-08-29T20:31:30.741Z,61.66
2022-08-29T20:33:58.527Z,61.79
2022-08-29T20:36:45.842Z,62.09
2022-08-29T20:39:16.810Z,62.31
2022-08-29T20:41:52.202Z,62.94
2022-08-29T20:44:33.504Z,62.74
2022-08-29T20:47:01.936Z,62.70
2022-08-29T20:49:29.707Z,62.87
2022-08-29T20:51:57.323Z,63.15
2022-08-29T20:54:25.296Z,63.18
2022-08-29T20:56:55.118Z,63.38
2022-08-29T20:59:26.559Z,63.42
2022-08-29T21:01:55.740Z,63.63
2022-08-29T21:04:42.524Z,63.83
2022-08-29T21:07:13.223Z,64.23
2022-08-29T21:09:45.608Z,64.40
2022-08-29T21:12:14.569Z,64.86
2022-08-29T21:14:42.427Z,65.13
2022-08-29T21:17:11.545Z,65.23
2022-08-29T21:19:40.327Z,65.12
2022-08-29T21:22:10.360Z,65.28
2022-08-29T21:24:37.959Z,65.33
2022-08-29T21:27:05.956Z,65.47
2022-08-29T21:29:37.343Z,66.35
2022-08-29T21:32:05.256Z,66.05
2022-08-29T21:34:32.842Z,65.85
2022-08-29T21:37:00.519Z,66.10
2022-08-29T21:39:29.134Z,66.34
2022-08-29T21:41:58.334Z,66.37
2022-08-29T21:44:30.775Z,66.56
2022-08-29T21:46:58.763Z,66.34
2022-08-29T21:49:32.601Z,67.31
2022-08-29T21:52:00.909Z,66.38
2022-08-29T21:54:28.572Z,66.31
2022-08-29T21:56:56.116Z,66.55
2022-08-29T21:59:27.936Z,66.90
2022-08-29T22:01:56.713Z,66.41
2022-08-29T22:04:29.010Z,66.40
2022-08-29T22:06:59.283Z,66.56
2022-08-29T22:09:28.516Z,66.55
2022-08-29T22:11:56.454Z,66.67
2022-08-29T22:14:43.163Z,66.68
2022-08-29T22:17:10.786Z,66.66
2022-08-29T22:19:38.592Z,66.65
2022-08-29T22:22:06.235Z,66.77
2022-08-29T22:24:33.857Z,66.75
2022-08-29T22:27:03.890Z,66.84
2022-08-29T22:29:34.769Z,66.83
2022-08-29T22:32:05.240Z,67.21
2022-08-29T22:34:35.034Z,67.31
2022-08-29T22:37:02.858Z,67.31
2022-08-29T22:39:30.466Z,67.26
2022-08-29T22:41:58.038Z,67.19
2022-08-29T22:47:13.540Z,67.67
2022-08-29T22:49:41.237Z,67.88
2022-08-29T22:52:11.396Z,68.09
2022-08-29T22:54:39.727Z,68.22
2022-08-29T22:57:11.051Z,68.43
2022-08-29T22:59:42.369Z,69.06
2022-08-29T23:02:11.750Z,68.55
2022-08-29T23:04:40.244Z,68.69
2022-08-29T23:07:12.185Z,69.40
2022-08-29T23:09:41.938Z,69.10
2022-08-29T23:12:10.903Z,69.43
2022-08-29T23:14:40.424Z,69.42
2022-08-29T23:17:08.892Z,69.25
2022-08-29T23:19:37.110Z,69.49
2022-08-29T23:22:10.227Z,69.51
2022-08-29T23:24:41.574Z,69.58
2022-08-29T23:27:31.118Z,69.82
2022-08-29T23:30:00.086Z,69.49
2022-08-29T23:32:28.422Z,69.64
2022-08-29T23:34:58.473Z,70.39
2022-08-29T23:37:29.291Z,69.55
2022-08-29T23:39:56.799Z,69.77
2022-08-29T23:42:24.869Z,69.74
2022-08-29T23:44:58.249Z,70.49
2022-08-29T23:47:25.800Z,69.98
2022-08-29T23:49:53.287Z,70.14
2022-08-29T23:52:20.873Z,70.39
2022-08-29T23:54:50.727Z,70.57
2022-08-29T23:57:20.854Z,71.15
